createdAt,value
2022-10-11T00:02:01.485Z,102644.78
2022-10-11T00:04:27.972Z,102653.59
2022-10-11T00:06:54.824Z,102632.25
2022-10-11T00:09:21.353Z,102635.31
2022-10-11T00:11:47.844Z,102644.16
2022-10-11T00:14:14.506Z,102639.78
2022-10-11T00:16:44.322Z,102642.56
2022-10-11T00:19:11.649Z,102649.72
2022-10-11T00:21:38.218Z,102656.88
2022-10-11T00:24:05.513Z,102661.34
2022-10-11T00:26:32.477Z,102655.38
2022-10-11T00:28:59.023Z,102663.28
2022-10-11T00:31:25.587Z,102663.28
2022-10-11T00:33:53.740Z,102658.31
2022-10-11T00:36:21.224Z,102671.50
2022-10-11T00:38:48.196Z,102668.97
2022-10-11T00:41:15.999Z,102665.84
2022-10-11T00:43:43.806Z,102674.41
2022-10-11T00:46:16.045Z,102681.56
2022-10-11T00:48:49.425Z,102680.03
2022-10-11T00:51:43.044Z,102678.22
2022-10-11T00:54:14.864Z,102667.41
2022-10-11T00:56:43.571Z,102673.34
2022-10-11T00:59:14.394Z,102679.41
2022-10-11T01:01:41.028Z,102678.66
2022-10-11T01:04:07.594Z,102688.38
2022-10-11T01:06:34.682Z,102684.84
2022-10-11T01:09:01.236Z,102691.03
2022-10-11T01:11:30.256Z,102683.16
2022-10-11T01:14:27.730Z,102688.47
2022-10-11T01:17:16.243Z,102680.63
2022-10-11T01:19:56.604Z,102676.25
2022-10-11T01:22:41.489Z,102682.53
2022-10-11T01:25:16.848Z,102684.25
2022-10-11T01:28:12.103Z,102683.50
2022-10-11T01:30:39.073Z,102686.38
2022-10-11T01:33:14.915Z,102686.28
2022-10-11T01:35:45.205Z,102686.50
2022-10-11T01:38:22.404Z,102689.38
2022-10-11T01:40:52.955Z,102701.63
2022-10-11T01:43:20.678Z,102704.31
2022-10-11T01:45:51.663Z,102696.66
2022-10-11T01:48:18.713Z,102701.75
2022-10-11T01:50:53.002Z,102708.88
2022-10-11T01:53:40.056Z,102708.88
2022-10-11T01:56:18.858Z,102706.34
2022-10-11T01:59:16.282Z,102709.13
2022-10-11T02:02:05.115Z,102710.00
2022-10-11T02:05:00.879Z,102717.13
2022-10-11T02:07:39.324Z,102719.06
2022-10-11T02:10:21.171Z,102713.72
2022-10-11T02:13:09.277Z,102712.88
2022-10-11T02:15:40.730Z,102710.31
2022-10-11T02:18:15.958Z,102708.63
2022-10-11T02:20:45.352Z,102698.75
2022-10-11T02:23:26.567Z,102710.53
2022-10-11T02:25:54.434Z,102702.16
2022-10-11T02:28:28.241Z,102703.50
2022-10-11T02:30:56.588Z,102704.34
2022-10-11T02:33:31.370Z,102714.16
2022-10-11T02:36:05.695Z,102710.63
2022-10-11T02:38:40.080Z,102709.78
2022-10-11T02:41:32.890Z,102710.75
2022-10-11T02:44:08.192Z,102704.91
2022-10-11T02:46:35.623Z,102718.84
2022-10-11T02:49:02.420Z,102721.50
2022-10-11T02:51:32.598Z,102718.03
2022-10-11T02:53:59.196Z,102726.13
2022-10-11T02:56:25.931Z,102713.66
2022-10-11T02:58:52.454Z,102724.41
2022-10-11T03:01:19.017Z,102723.56
2022-10-11T03:03:45.611Z,102720.16
2022-10-11T03:06:12.293Z,102729.84
2022-10-11T03:08:38.856Z,102720.25
2022-10-11T03:11:05.411Z,102707.06
2022-10-11T03:13:31.964Z,102723.78
2022-10-11T03:16:03.273Z,102723.78
2022-10-11T03:18:30.959Z,102731.88
2022-10-11T03:20:57.649Z,102725.69
2022-10-11T03:23:24.146Z,102723.03
2022-10-11T03:25:52.024Z,102716.09
2022-10-11T03:28:19.005Z,102712.69
2022-10-11T03:30:48.458Z,102716.09
2022-10-11T03:33:15.263Z,102731.25
2022-10-11T03:35:44.760Z,102723.25
2022-10-11T03:38:17.280Z,102726.88
2022-10-11T03:40:44.246Z,102730.50
2022-10-11T03:43:11.098Z,102733.16
2022-10-11T03:45:38.056Z,102728.94
2022-10-11T03:48:04.948Z,102735.97
2022-10-11T03:50:31.449Z,102743.09
2022-10-11T03:52:58.030Z,102728.41
2022-10-11T03:55:24.672Z,102739.69
2022-10-11T03:57:51.139Z,102737.13
2022-10-11T04:00:17.765Z,102740.66
2022-10-11T04:02:44.379Z,102736.19
2022-10-11T04:05:12.589Z,102741.16
2022-10-11T04:07:39.653Z,102748.09
2022-10-11T04:10:07.122Z,102753.22
2022-10-11T04:12:34.422Z,102751.63
2022-10-11T04:15:00.978Z,102753.31
2022-10-11T04:17:27.499Z,102753.53
2022-10-11T04:19:53.976Z,102755.25
2022-10-11T04:22:20.516Z,102756.31
2022-10-11T04:24:47.042Z,102770.38
2022-10-11T04:27:13.487Z,102764.44
2022-10-11T04:29:39.972Z,102768.91
2022-10-11T04:32:06.568Z,102764.44
2022-10-11T04:34:33.112Z,102764.63
2022-10-11T04:36:59.673Z,102773.38
2022-10-11T04:39:26.221Z,102773.28
2022-10-11T04:41:52.810Z,102772.41
2022-10-11T04:44:19.335Z,102768.03
2022-10-11T04:46:45.847Z,102774.34
2022-10-11T04:49:12.357Z,102768.34
2022-10-11T04:51:38.976Z,102780.72
2022-10-11T04:54:05.592Z,102777.31
2022-10-11T04:56:32.155Z,102781.56
2022-10-11T04:59:00.931Z,102779.00
2022-10-11T05:01:27.427Z,102777.31
2022-10-11T05:03:53.949Z,102784.34
2022-10-11T05:06:20.463Z,102787.97
2022-10-11T05:08:47.038Z,102781.78
2022-10-11T05:11:16.151Z,102781.88
2022-10-11T05:13:43.590Z,102790.63
2022-10-11T05:16:11.805Z,102790.81
2022-10-11T05:18:39.529Z,102788.16
2022-10-11T05:21:15.344Z,102792.53
2022-10-11T05:23:41.775Z,102791.56
2022-10-11T05:26:08.676Z,102788.91
2022-10-11T05:28:35.991Z,102793.06
2022-10-11T05:31:03.132Z,102788.81
2022-10-11T05:33:29.666Z,102796.50
2022-10-11T05:35:56.239Z,102795.53
2022-10-11T05:38:23.015Z,102799.03
2022-10-11T05:40:49.842Z,102792.88
2022-10-11T05:43:16.354Z,102798.91
2022-10-11T05:45:44.964Z,102805.09
2022-10-11T05:48:11.672Z,102801.81
2022-10-11T05:50:38.991Z,102808.59
2022-10-11T05:53:06.426Z,102814.59
2022-10-11T05:55:43.322Z,102813.72
2022-10-11T05:58:15.167Z,102812.88
2022-10-11T06:00:41.749Z,102821.63
2022-10-11T06:03:10.979Z,102814.88
2022-10-11T06:05:37.857Z,102812.97
2022-10-11T06:08:06.083Z,102819.81
2022-10-11T06:10:33.125Z,102813.72
2022-10-11T06:12:59.807Z,102820.56
2022-10-11T06:15:26.522Z,102820.44
2022-10-11T06:17:53.343Z,102825.78
2022-10-11T06:20:19.901Z,102828.34
2022-10-11T06:22:46.419Z,102828.22
2022-10-11T06:25:12.999Z,102824.59
2022-10-11T06:27:39.490Z,102829.91
2022-10-11T06:30:07.335Z,102836.09
2022-10-11T06:32:33.944Z,102835.13
2022-10-11T06:35:00.479Z,102840.34
2022-10-11T06:37:26.985Z,102842.16
2022-10-11T06:39:53.459Z,102837.03
2022-10-11T06:42:19.927Z,102848.25
2022-10-11T06:44:46.414Z,102843.78
2022-10-11T06:47:13.457Z,102844.53
2022-10-11T06:49:39.934Z,102850.91
2022-10-11T06:52:06.418Z,102851.00
2022-10-11T06:54:32.928Z,102859.44
2022-10-11T06:56:59.427Z,102861.25
2022-10-11T06:59:25.944Z,102870.94
2022-10-11T07:01:52.414Z,102870.94
2022-10-11T07:04:18.946Z,102875.53
2022-10-11T07:06:45.515Z,102872.75
2022-10-11T07:09:12.175Z,102873.72
2022-10-11T07:11:38.844Z,102874.69
2022-10-11T07:14:07.918Z,102885.44
2022-10-11T07:16:36.461Z,102880.22
2022-10-11T07:19:05.057Z,102880.41
2022-10-11T07:21:33.845Z,102885.53
2022-10-11T07:24:01.355Z,102885.53
2022-10-11T07:26:38.691Z,102897.06
2022-10-11T07:29:07.236Z,102895.25
2022-10-11T07:31:33.752Z,102901.53
2022-10-11T07:34:00.286Z,102898.88
2022-10-11T07:36:26.901Z,102895.56
2022-10-11T07:38:53.548Z,102904.09
2022-10-11T07:41:20.859Z,102896.84
2022-10-11T07:43:49.567Z,102892.16
2022-10-11T07:46:17.289Z,102900.66
2022-10-11T07:48:44.311Z,102899.41
2022-10-11T07:51:13.687Z,102894.59
2022-10-11T07:53:45.528Z,102887.25
2022-10-11T07:56:14.500Z,102897.88
2022-10-11T07:58:42.651Z,102898.34
2022-10-11T08:01:10.871Z,102908.25
2022-10-11T08:03:38.577Z,102907.78
2022-10-11T08:06:09.463Z,102914.41
2022-10-11T08:08:36.803Z,102912.97
2022-10-11T08:11:04.271Z,102903.81
2022-10-11T08:13:30.900Z,102907.84
2022-10-11T08:15:57.851Z,102913.47
2022-10-11T08:18:24.499Z,102927.09
2022-10-11T08:20:53.578Z,102923.03
2022-10-11T08:23:20.617Z,102925.22
2022-10-11T08:25:48.569Z,102924.91
2022-10-11T08:28:17.538Z,102938.28
2022-10-11T08:30:51.256Z,102936.91
2022-10-11T08:33:19.031Z,102937.09
2022-10-11T08:35:45.785Z,102928.22
2022-10-11T08:38:12.512Z,102939.56
2022-10-11T08:40:46.277Z,102936.41
2022-10-11T08:43:28.023Z,102935.00
2022-10-11T08:45:57.938Z,102943.88
2022-10-11T08:48:46.306Z,102942.91
2022-10-11T08:51:25.277Z,102941.94
2022-10-11T08:54:07.603Z,102944.81
2022-10-11T08:56:38.766Z,102944.81
2022-10-11T08:59:11.299Z,102948.88
2022-10-11T09:01:46.562Z,102947.41
2022-10-11T09:04:18.076Z,102947.44
2022-10-11T09:06:55.433Z,102945.91
2022-10-11T09:09:51.060Z,102948.69
2022-10-11T09:12:54.477Z,102957.09
2022-10-11T09:16:00.248Z,102948.34
2022-10-11T09:18:35.483Z,102951.25
2022-10-11T09:21:32.182Z,102956.72
2022-10-11T09:24:04.785Z,102962.00
2022-10-11T09:26:47.412Z,102959.06
2022-10-11T09:29:21.470Z,102961.72
2022-10-11T09:31:52.505Z,102972.41
2022-10-11T09:34:21.352Z,102958.63
2022-10-11T09:37:03.592Z,102961.69
2022-10-11T09:39:33.371Z,102970.66
2022-10-11T09:42:07.777Z,102970.03
2022-10-11T09:44:37.442Z,102966.84
2022-10-11T09:47:04.990Z,102964.78
2022-10-11T09:49:40.847Z,102964.91
2022-10-11T09:52:16.074Z,102975.47
2022-10-11T09:54:57.995Z,102967.69
2022-10-11T09:57:26.423Z,102969.66
2022-10-11T10:00:06.395Z,102974.03
2022-10-11T10:03:04.049Z,102970.50
2022-10-11T10:05:32.877Z,102969.50
2022-10-11T10:08:08.937Z,102968.53
2022-10-11T10:10:38.739Z,102972.16
2022-10-11T10:13:16.858Z,102966.00
2022-10-11T10:15:47.053Z,102972.91
2022-10-11T10:18:23.666Z,102968.44
2022-10-11T10:20:59.468Z,102972.69
2022-10-11T10:23:31.256Z,102970.97
2022-10-11T10:26:27.481Z,102969.06
2022-10-11T10:29:08.954Z,102959.22
2022-10-11T10:32:12.419Z,102966.28
2022-10-11T10:34:36.829Z,102965.31
2022-10-11T10:37:15.623Z,102968.72
2022-10-11T10:39:49.699Z,102962.53
2022-10-11T10:42:20.082Z,102962.41
2022-10-11T10:44:56.983Z,102965.09
2022-10-11T10:47:41.685Z,102969.47
2022-10-11T10:50:48.565Z,102966.78
2022-10-11T10:53:42.091Z,102962.41
2022-10-11T10:56:48.327Z,102966.66
2022-10-11T10:59:21.214Z,102958.63
2022-10-11T11:02:35.425Z,102952.31
2022-10-11T11:05:18.087Z,102955.00
2022-10-11T11:07:56.235Z,102943.59
2022-10-11T11:10:35.074Z,102949.53
2022-10-11T11:13:04.297Z,102944.19
2022-10-11T11:15:52.651Z,102939.72
2022-10-11T11:18:29.644Z,102936.06
2022-10-11T11:21:27.535Z,102935.22
2022-10-11T11:24:11.710Z,102933.41
2022-10-11T11:26:46.858Z,102937.78
2022-10-11T11:29:50.749Z,102940.34
2022-10-11T11:32:46.034Z,102933.06
2022-10-11T11:35:24.910Z,102940.13
2022-10-11T11:38:01.316Z,102930.28
2022-10-11T11:40:39.702Z,102939.25
2022-10-11T11:43:23.130Z,102933.81
2022-10-11T11:45:58.328Z,102934.41
2022-10-11T11:48:26.729Z,102923.00
2022-10-11T11:51:01.900Z,102919.22
2022-10-11T11:53:40.936Z,102928.59
2022-10-11T11:56:25.245Z,102925.06
2022-10-11T11:59:03.079Z,102922.16
2022-10-11T12:01:52.746Z,102922.06
2022-10-11T12:04:28.127Z,102920.25
2022-10-11T12:07:18.569Z,102905.28
2022-10-11T12:09:52.820Z,102913.88
2022-10-11T12:12:37.565Z,102912.06
2022-10-11T12:15:21.153Z,102911.22
2022-10-11T12:17:57.054Z,102912.81
2022-10-11T12:20:49.503Z,102902.97
2022-10-11T12:23:20.087Z,102907.34
2022-10-11T12:26:15.379Z,102902.00
2022-10-11T12:28:42.211Z,102902.00
2022-10-11T12:31:30.853Z,102900.41
2022-10-11T12:34:16.433Z,102902.00
2022-10-11T12:36:47.133Z,102899.34
2022-10-11T12:39:19.708Z,102899.34
2022-10-11T12:41:49.823Z,102894.97
2022-10-11T12:44:19.110Z,102900.19
2022-10-11T12:46:53.564Z,102902.84
2022-10-11T12:49:31.193Z,102889.03
2022-10-11T12:52:01.784Z,102892.50
2022-10-11T12:54:37.606Z,102899.34
2022-10-11T12:57:46.161Z,102893.13
2022-10-11T13:00:29.873Z,102893.97
2022-10-11T13:03:27.173Z,102893.97
2022-10-11T13:06:01.484Z,102885.97
2022-10-11T13:08:32.199Z,102883.28
2022-10-11T13:11:03.294Z,102886.81
2022-10-11T13:13:41.503Z,102883.06
2022-10-11T13:16:20.862Z,102883.06
2022-10-11T13:18:49.893Z,102880.63
2022-10-11T13:21:27.721Z,102883.06
2022-10-11T13:23:57.791Z,102873.09
2022-10-11T13:26:26.409Z,102873.00
2022-10-11T13:28:53.001Z,102872.16
2022-10-11T13:31:19.795Z,102876.53
2022-10-11T13:33:46.612Z,102861.81
2022-10-11T13:36:17.732Z,102871.06
2022-10-11T13:38:53.730Z,102862.41
2022-10-11T13:41:23.766Z,102870.06
2022-10-11T13:43:50.403Z,102866.69
2022-10-11T13:46:23.306Z,102867.53
2022-10-11T13:49:05.150Z,102873.56
2022-10-11T13:51:37.406Z,102877.22
2022-10-11T13:54:13.635Z,102870.06
2022-10-11T13:56:51.041Z,102865.81
2022-10-11T13:59:23.665Z,102863.84
2022-10-11T14:02:01.110Z,102857.94
2022-10-11T14:04:29.967Z,102863.75
2022-10-11T14:07:02.389Z,102864.59
2022-10-11T14:09:39.074Z,102864.47
2022-10-11T14:12:28.698Z,102872.63
2022-10-11T14:14:55.204Z,102865.44
2022-10-11T14:17:40.211Z,102869.94
2022-10-11T14:20:13.230Z,102865.31
2022-10-11T14:22:39.793Z,102860.38
2022-10-11T14:25:06.756Z,102867.16
2022-10-11T14:27:33.393Z,102874.31
2022-10-11T14:30:24.154Z,102868.84
2022-10-11T14:32:49.082Z,102865.31
2022-10-11T14:35:24.533Z,102857.44
2022-10-11T14:37:51.917Z,102858.28
2022-10-11T14:40:24.307Z,102859.88
2022-10-11T14:42:51.192Z,102853.66
2022-10-11T14:45:18.978Z,102855.47
2022-10-11T14:47:45.518Z,102862.66
2022-10-11T14:50:42.658Z,102852.81
2022-10-11T14:53:10.842Z,102853.91
2022-10-11T14:55:39.808Z,102850.38
2022-10-11T14:58:07.332Z,102849.41
2022-10-11T15:00:35.623Z,102853.78
2022-10-11T15:03:03.211Z,102850.13
2022-10-11T15:05:33.992Z,102845.66
2022-10-11T15:08:01.864Z,102843.94
2022-10-11T15:10:31.358Z,102838.84
2022-10-11T15:12:57.884Z,102844.69
2022-10-11T15:15:28.190Z,102844.78
2022-10-11T15:17:56.660Z,102842.97
2022-10-11T15:20:36.946Z,102848.31
2022-10-11T15:23:05.234Z,102838.72
2022-10-11T15:25:32.226Z,102844.78
2022-10-11T15:27:58.763Z,102834.22
2022-10-11T15:30:29.267Z,102838.59
2022-10-11T15:32:55.983Z,102828.03
2022-10-11T15:35:23.563Z,102839.44
2022-10-11T15:37:58.347Z,102827.16
2022-10-11T15:40:32.244Z,102834.94
2022-10-11T15:42:58.801Z,102829.59
2022-10-11T15:45:26.402Z,102836.78
2022-10-11T15:47:52.955Z,102828.75
2022-10-11T15:50:37.274Z,102830.47
2022-10-11T15:53:05.020Z,102836.66
2022-10-11T15:55:32.953Z,102823.41
2022-10-11T15:57:59.680Z,102824.25
2022-10-11T16:00:27.153Z,102818.06
2022-10-11T16:02:54.512Z,102818.91
2022-10-11T16:05:23.403Z,102828.75
2022-10-11T16:07:50.103Z,102813.47
2022-10-11T16:10:16.786Z,102833.13
2022-10-11T16:12:43.303Z,102824.38
2022-10-11T16:15:11.260Z,102819.16
2022-10-11T16:17:38.235Z,102824.50
2022-10-11T16:20:06.768Z,102828.88
2022-10-11T16:22:34.911Z,102821.81
2022-10-11T16:25:02.648Z,102824.38
2022-10-11T16:27:30.379Z,102820.00
2022-10-11T16:29:57.302Z,102825.22
2022-10-11T16:32:24.338Z,102832.50
2022-10-11T16:34:51.116Z,102835.19
2022-10-11T16:37:17.648Z,102829.72
2022-10-11T16:39:44.216Z,102839.56
2022-10-11T16:42:10.703Z,102812.00
2022-10-11T16:44:38.860Z,102832.50
2022-10-11T16:47:06.100Z,102835.19
2022-10-11T16:49:32.926Z,102837.97
2022-10-11T16:52:02.268Z,102837.13
2022-10-11T16:54:30.446Z,102837.13
2022-10-11T16:56:58.173Z,102838.97
2022-10-11T16:59:24.799Z,102826.31
2022-10-11T17:01:51.482Z,102830.34
2022-10-11T17:04:18.095Z,102841.66
2022-10-11T17:06:44.918Z,102840.81
2022-10-11T17:09:11.871Z,102832.91
2022-10-11T17:11:38.713Z,102829.84
2022-10-11T17:14:06.135Z,102833.88
2022-10-11T17:16:33.464Z,102841.78
2022-10-11T17:19:00.165Z,102840.91
2022-10-11T17:21:27.028Z,102836.78
2022-10-11T17:23:53.696Z,102838.38
2022-10-11T17:26:25.028Z,102837.50
2022-10-11T17:28:55.772Z,102846.50
2022-10-11T17:31:22.912Z,102838.59
2022-10-11T17:33:50.156Z,102840.41
2022-10-11T17:36:23.598Z,102842.97
2022-10-11T17:38:51.347Z,102836.91
2022-10-11T17:41:18.517Z,102837.13
2022-10-11T17:43:45.065Z,102836.16
2022-10-11T17:46:14.283Z,102846.72
2022-10-11T17:48:40.909Z,102840.66
2022-10-11T17:51:14.144Z,102831.91
2022-10-11T17:53:41.426Z,102843.31
2022-10-11T17:56:12.812Z,102837.13
2022-10-11T17:58:39.762Z,102837.13
2022-10-11T18:01:09.482Z,102833.72
2022-10-11T18:03:36.507Z,102845.25
2022-10-11T18:06:05.655Z,102840.06
2022-10-11T18:08:40.041Z,102831.19
2022-10-11T18:11:15.737Z,102837.41
2022-10-11T18:13:46.053Z,102834.00
2022-10-11T18:16:15.480Z,102835.94
2022-10-11T18:18:42.603Z,102838.59
2022-10-11T18:21:09.958Z,102835.94
2022-10-11T18:23:38.229Z,102842.25
2022-10-11T18:26:09.721Z,102836.03
2022-10-11T18:28:36.522Z,102838.94
2022-10-11T18:31:12.368Z,102841.50
2022-10-11T18:33:39.707Z,102839.81
2022-10-11T18:36:07.651Z,102835.41
2022-10-11T18:38:34.838Z,102835.41
2022-10-11T18:41:09.015Z,102835.53
2022-10-11T18:43:35.864Z,102836.66
2022-10-11T18:46:07.707Z,102836.50
2022-10-11T18:48:34.891Z,102836.66
2022-10-11T18:51:06.794Z,102828.63
2022-10-11T18:53:34.732Z,102836.03
2022-10-11T18:56:03.247Z,102834.94
2022-10-11T18:58:31.360Z,102829.72
2022-10-11T19:01:11.142Z,102830.56
2022-10-11T19:03:38.136Z,102830.81
2022-10-11T19:06:07.603Z,102816.09
2022-10-11T19:08:35.044Z,102830.81
2022-10-11T19:11:06.384Z,102829.22
2022-10-11T19:13:33.850Z,102834.44
2022-10-11T19:16:11.697Z,102821.56
2022-10-11T19:18:43.189Z,102830.19
2022-10-11T19:21:13.430Z,102824.22
2022-10-11T19:23:45.013Z,102832.00
2022-10-11T19:26:17.020Z,102837.34
2022-10-11T19:28:44.544Z,102830.31
2022-10-11T19:31:16.117Z,102826.88
2022-10-11T19:33:45.278Z,102827.03
2022-10-11T19:36:14.089Z,102828.84
2022-10-11T19:38:44.092Z,102827.88
2022-10-11T19:41:10.820Z,102824.38
2022-10-11T19:43:37.312Z,102821.81
2022-10-11T19:46:06.404Z,102821.81
2022-10-11T19:48:35.593Z,102820.97
2022-10-11T19:51:03.456Z,102816.69
2022-10-11T19:53:29.966Z,102820.22
2022-10-11T19:56:00.778Z,102818.63
2022-10-11T19:58:27.369Z,102810.50
2022-10-11T20:01:01.939Z,102810.75
2022-10-11T20:03:29.588Z,102820.44
2022-10-11T20:05:59.837Z,102812.66
2022-10-11T20:08:27.425Z,102827.63
2022-10-11T20:10:55.053Z,102810.84
2022-10-11T20:13:21.662Z,102818.00
2022-10-11T20:15:48.191Z,102810.00
2022-10-11T20:18:14.731Z,102813.53
2022-10-11T20:20:54.799Z,102805.16
2022-10-11T20:23:26.640Z,102814.50
2022-10-11T20:26:08.178Z,102818.97
2022-10-11T20:28:36.533Z,102818.38
2022-10-11T20:31:05.507Z,102821.78
2022-10-11T20:33:32.801Z,102828.81
2022-10-11T20:36:05.073Z,102816.81
2022-10-11T20:38:33.616Z,102825.44
2022-10-11T20:41:00.364Z,102822.13
2022-10-11T20:43:26.872Z,102830.88
2022-10-11T20:46:03.971Z,102835.38
2022-10-11T20:48:31.794Z,102820.31
2022-10-11T20:50:58.342Z,102815.31
2022-10-11T20:53:25.640Z,102824.81
2022-10-11T20:55:52.159Z,102824.94
2022-10-11T20:58:19.193Z,102822.25
2022-10-11T21:00:46.602Z,102821.50
2022-10-11T21:03:16.330Z,102817.03
2022-10-11T21:05:43.321Z,102818.09
2022-10-11T21:08:10.121Z,102823.34
2022-10-11T21:10:37.478Z,102818.97
2022-10-11T21:13:04.394Z,102819.06
2022-10-11T21:15:32.152Z,102816.41
2022-10-11T21:17:58.635Z,102818.22
2022-10-11T21:20:25.249Z,102825.38
2022-10-11T21:22:51.891Z,102825.38
2022-10-11T21:25:18.367Z,102818.38
2022-10-11T21:27:44.905Z,102816.78
2022-10-11T21:30:11.396Z,102814.84
2022-10-11T21:32:38.111Z,102818.47
2022-10-11T21:35:04.696Z,102813.25
2022-10-11T21:37:31.366Z,102806.44
2022-10-11T21:39:58.036Z,102822.22
2022-10-11T21:42:29.293Z,102822.34
2022-10-11T21:44:56.143Z,102816.34
2022-10-11T21:47:22.591Z,102815.59
2022-10-11T21:49:49.111Z,102820.47
2022-10-11T21:52:15.657Z,102828.34
2022-10-11T21:54:42.119Z,102832.09
2022-10-11T21:57:08.618Z,102828.69
2022-10-11T21:59:35.116Z,102835.09
2022-10-11T22:02:02.230Z,102830.84
2022-10-11T22:04:28.962Z,102828.19
2022-10-11T22:06:55.683Z,102824.91
2022-10-11T22:09:22.280Z,102826.09
2022-10-11T22:11:48.770Z,102830.38
2022-10-11T22:14:16.084Z,102826.94
2022-10-11T22:16:42.632Z,102820.03
2022-10-11T22:19:09.140Z,102823.53
2022-10-11T22:21:35.943Z,102819.50
2022-10-11T22:24:02.673Z,102812.25
2022-10-11T22:26:31.081Z,102816.84
2022-10-11T22:28:58.688Z,102811.88
2022-10-11T22:31:25.160Z,102818.78
2022-10-11T22:33:55.948Z,102815.38
2022-10-11T22:36:24.301Z,102819.00
2022-10-11T22:38:51.822Z,102819.88
2022-10-11T22:41:18.426Z,102818.28
2022-10-11T22:43:45.248Z,102813.78
2022-10-11T22:46:11.865Z,102819.22
2022-10-11T22:48:38.405Z,102814.75
2022-10-11T22:51:05.090Z,102812.53
2022-10-11T22:53:31.874Z,102814.97
2022-10-11T22:55:58.646Z,102808.19
2022-10-11T22:58:25.507Z,102811.81
2022-10-11T23:00:52.027Z,102805.53
2022-10-11T23:03:19.553Z,102809.03
2022-10-11T23:05:57.017Z,102804.78
2022-10-11T23:08:24.151Z,102795.28
2022-10-11T23:10:50.633Z,102797.75
2022-10-11T23:13:17.293Z,102788.47
2022-10-11T23:15:44.117Z,102790.91
2022-10-11T23:18:10.666Z,102796.25
2022-10-11T23:20:40.044Z,102805.97
2022-10-11T23:23:07.297Z,102803.41
2022-10-11T23:25:33.987Z,102800.84
2022-10-11T23:28:01.264Z,102787.72
2022-10-11T23:30:28.714Z,102787.03
2022-10-11T23:32:55.207Z,102787.72
2022-10-11T23:35:21.698Z,102784.34
2022-10-11T23:37:48.228Z,102790.66
2022-10-11T23:40:15.271Z,102789.28
2022-10-11T23:42:41.811Z,102787.22
2022-10-11T23:45:09.071Z,102791.72
2022-10-11T23:47:35.740Z,102791.81
2022-10-11T23:50:02.304Z,102782.97
2022-10-11T23:52:28.776Z,102790.13
2022-10-11T23:54:56.173Z,102797.28
2022-10-11T23:57:22.655Z,102785.97
2022-10-11T23:59:49.133Z,102791.31
